This is the latest recevied weather packets stored in our database for station/object N2PPN. If no packets are shown the sender has not sent any weather packets the latest 10 day(s).
| Time | Temp. | Humidity | Pressure | Rain* | Wind** | Luminosity | Snow |
|---|---|---|---|---|---|---|---|
| 1777239187 | 13.89° C | 59% | 1023.4 hPa | 0 mm | - | 232 W/m² | - |
| 1777238884 | 13.89° C | 59% | 1023.2 hPa | 0 mm | - | 246 W/m² | - |
| 1777238581 | 13.89° C | 58% | 1023.1 hPa | 0 mm | - | 261 W/m² | - |
| 1777238277 | 13.33° C | 60% | 1023.4 hPa | 0 mm | - | 276 W/m² | - |
| 1777237975 | 13.89° C | 59% | 1023.4 hPa | 0 mm | - | 292 W/m² | - |
| 1777237670 | 13.89° C | 59% | 1023.2 hPa | 0 mm | - | 303 W/m² | - |
| 1777237368 | 13.89° C | 59% | 1023.2 hPa | 0 mm | - | 314 W/m² | - |
| 1777237066 | 13.33° C | 60% | 1023.2 hPa | 0 mm | - | 332 W/m² | - |
| 1777236764 | 13.89° C | 57% | 1023.1 hPa | 0 mm | - | 348 W/m² | - |
| 1777236462 | 13.33° C | 59% | 1023.2 hPa | 0 mm | - | 367 W/m² | - |
| 1777236158 | 12.78° C | 61% | 1023.3 hPa | 0 mm | - | 377 W/m² | - |
| 1777235854 | 13.89° C | 60% | 1023.1 hPa | 0 mm | - | 392 W/m² | - |
| 1777235546 | 13.89° C | 59% | 1023.1 hPa | 0 mm | - | 403 W/m² | - |
| 1777235242 | 13.89° C | 59% | 1023.1 hPa | 0 mm | - | 421 W/m² | - |
| 1777234938 | 13.89° C | 60% | 1023 hPa | 0 mm | - | 437 W/m² | - |
| 1777234634 | 13.89° C | 58% | 1022.8 hPa | 0 mm | - | 451 W/m² | - |
| 1777234329 | 13.89° C | 60% | 1022.9 hPa | 0 mm | - | 462 W/m² | - |
| 1777234025 | 13.33° C | 63% | 1022.9 hPa | 0 mm | - | 483 W/m² | - |
| 1777233721 | 12.78° C | 63% | 1023 hPa | 0 mm | - | 490 W/m² | - |
| 1777233417 | 13.33° C | 62% | 1022.9 hPa | 0 mm | - | 504 W/m² | - |
| 1777233112 | 13.33° C | 61% | 1023 hPa | 0 mm | - | 515 W/m² | - |
| 1777232808 | 13.89° C | 63% | 1022.8 hPa | 0 mm | - | 523 W/m² | - |
| 1777232507 | 13.33° C | 63% | 1022.7 hPa | 0 mm | - | 534 W/m² | - |
| 1777232205 | 13.33° C | 63% | 1022.9 hPa | 0 mm | - | 545 W/m² | - |
| 1777231900 | 13.33° C | 64% | 1022.9 hPa | 0 mm | - | 557 W/m² | - |
* Rain latest hour (hover to see other rain measurements)
** Current wind speed in m/s (hover to see current wind gust speed)